West Point, TX (78963)

6:38 PM CDT on August 30, 2014 (GMT -0500)
La Grange | Change Station
CLOSE
Current Station
Airport
Location: La Grange,
Elevation: 322 ft
Nearby Weather Stations

Elev 322 ft 29.91 °N, 96.95 °W | Updated 23 minutes ago

Scattered Clouds
Scattered Clouds
92 °F
Feels Like 102 °F
N
10
Wind Variable Wind from SE

Today
High -- | Low -- °F
--% Chance of Precip.
Yesterday
High -- | Low -- °F
Precip. -- in
7:04 AM 7:52 PM
Waxing Crescent, 25% visible
Pressure 29.87 in
Visibility 10.0 miles
Clouds Scattered Clouds 6000 ft
Heat Index 102 °F
Dew Point 73 °F
Humidity 54%
Rainfall 0.00 in
Snow Depth Not available.
UV 1 out of 12
Pollen 7.50 out of 12
Air Quality Not available.
Flu Activity Not available.
METAR K3T5 302315Z AUTO 13009KT 10SM SCT060 34/23 A2987 RMK AO2 T03350230

More Conditions Fewer Conditions

Pressure 29.87 in
Visibility 10.0 miles
Clouds Scattered Clouds 6000 ft
Heat Index 102 °F
Dew Point 73 °F
Humidity 54%
Rainfall 0.00 in
Snow Depth Not available.
UV 1 out of 12
Pollen 7.50 out of 12
Air Quality Not available.
Flu Activity Not available.
METAR K3T5 302315Z AUTO 13009KT 10SM SCT060 34/23 A2987 RMK AO2 T03350230

More Conditions Fewer Conditions

Nowcast | as of 5:04 PM CDT on August 30, 2014

Through 7 PM...isolated showers will affect the counties south of Interstate 10. Movement of these showers will be to the west at around 5 mph. Residents can expect between a tenth and a quarter of an inch of rainfall with these showers.

×

10-Day Weather Forecast

Almanac

Astronomy

Aug. 30, 2014 Rise Set
Actual Time 7:04 AM CDT 7:52 PM CDT
Civil Twilight 6:39 AM CDT 8:17 PM CDT
Nautical Twilight 6:10 AM CDT 8:45 PM CDT
Astronomical Twilight 5:41 AM CDT 9:15 PM CDT
Moon 11:29 AM CDT 10:52 PM CDT
Length of Visible Light 13h 37m
Length of Day
12h 48m
Tomorrow will be 1m 43s shorter.
Waxing Crescent, 25% of the Moon is Illuminated
Today
Waxing Crescent
Sep 2
First Quarter
Sep 8
Full
Sep 15
Last Quarter
Sep 24
New

Today's Extremes

State Highs State Lows

Community

WunderPhotos

Upload Photos

1,748,677 photos uploaded!

Nearby

Snow Depth

Station Depth Elevation
No new snow has been reported.

Earthquake Activity

City Distance Mag. Time & Date
No recent earthquake activity has been reported nearby.
Minimum magnitude displayed is 2.5.

Coastal Water Temperatures

Place Temperature
No Stations Reporting

Nearby Weather Stations